createdAt,value
2022-09-15T00:01:57.068Z,97693.16
2022-09-15T00:04:23.967Z,97699.47
2022-09-15T00:06:50.810Z,97709.28
2022-09-15T00:09:17.665Z,97699.09
2022-09-15T00:11:44.492Z,97697.13
2022-09-15T00:14:11.388Z,97712.81
2022-09-15T00:16:38.546Z,97706.97
2022-09-15T00:19:06.511Z,97700.28
2022-09-15T00:21:34.469Z,97690.09
2022-09-15T00:24:01.666Z,97686.97
2022-09-15T00:26:29.397Z,97685.81
2022-09-15T00:28:57.071Z,97694.03
2022-09-15T00:31:25.284Z,97692.09
2022-09-15T00:33:54.062Z,97683.78
2022-09-15T00:36:21.131Z,97701.47
2022-09-15T00:38:48.017Z,97706.94
2022-09-15T00:41:16.168Z,97703.44
2022-09-15T00:43:50.661Z,97678.69
2022-09-15T00:46:18.553Z,97711.69
2022-09-15T00:48:56.510Z,97657.06
2022-09-15T00:51:30.565Z,97695.22
2022-09-15T00:53:57.592Z,97694.03
2022-09-15T00:56:24.461Z,97691.31
2022-09-15T00:58:57.987Z,97690.16
2022-09-15T01:01:30.879Z,97674.00
2022-09-15T01:03:58.220Z,97679.13
2022-09-15T01:06:39.232Z,97665.47
2022-09-15T01:09:10.697Z,97669.00
2022-09-15T01:11:37.615Z,97665.84
2022-09-15T01:14:04.495Z,97661.16
2022-09-15T01:20:06.888Z,97669.00
2022-09-15T01:23:10.613Z,97674.91
2022-09-15T01:26:02.786Z,97665.50
2022-09-15T01:29:05.119Z,97659.59
2022-09-15T01:32:02.170Z,97665.09
2022-09-15T01:34:32.202Z,97638.34
2022-09-15T01:37:05.147Z,97660.34
2022-09-15T01:39:35.029Z,97645.47
2022-09-15T01:42:10.116Z,97608.47
2022-09-15T01:44:47.827Z,97650.56
2022-09-15T01:47:16.049Z,97644.66
2022-09-15T01:49:46.387Z,97639.19
2022-09-15T01:52:16.007Z,97641.16
2022-09-15T01:54:49.048Z,97650.50
2022-09-15T01:57:17.410Z,97648.59
2022-09-15T01:59:44.477Z,97656.41
2022-09-15T02:02:14.159Z,97650.94
2022-09-15T02:04:50.706Z,97656.41
2022-09-15T02:07:38.137Z,97659.16
2022-09-15T02:10:13.943Z,97670.53
2022-09-15T02:12:50.793Z,97666.59
2022-09-15T02:15:42.392Z,97658.00
2022-09-15T02:18:10.407Z,97649.34
2022-09-15T02:20:38.953Z,97640.72
2022-09-15T02:23:10.088Z,97634.44
2022-09-15T02:25:40.880Z,97632.50
2022-09-15T02:28:08.584Z,97634.09
2022-09-15T02:30:36.484Z,97632.06
2022-09-15T02:33:06.739Z,97628.22
2022-09-15T02:35:34.956Z,97620.38
2022-09-15T02:38:02.064Z,97626.59
2022-09-15T02:40:29.208Z,97621.53
2022-09-15T02:42:58.100Z,97620.41
2022-09-15T02:45:25.372Z,97621.53
2022-09-15T02:47:52.237Z,97628.91
2022-09-15T02:50:20.143Z,97629.72
2022-09-15T02:52:47.071Z,97628.22
2022-09-15T02:55:13.931Z,97632.91
2022-09-15T02:57:40.787Z,97628.91
2022-09-15T03:00:14.892Z,97634.47
2022-09-15T03:02:46.292Z,97624.28
2022-09-15T03:05:14.292Z,97628.91
2022-09-15T03:07:41.120Z,97627.41
2022-09-15T03:10:08.590Z,97628.97
2022-09-15T03:12:43.289Z,97637.56
2022-09-15T03:15:11.409Z,97646.63
2022-09-15T03:17:39.417Z,97643.06
2022-09-15T03:20:08.000Z,97639.53
2022-09-15T03:22:35.367Z,97638.38
2022-09-15T03:25:05.650Z,97630.94
2022-09-15T03:27:33.311Z,97614.06
2022-09-15T03:30:00.498Z,97614.78
2022-09-15T03:32:27.552Z,97623.16
2022-09-15T03:34:58.388Z,97616.56
2022-09-15T03:37:26.001Z,97609.66
2022-09-15T03:39:53.170Z,97629.03
2022-09-15T03:42:20.396Z,97641.59
2022-09-15T03:44:47.269Z,97615.28
2022-09-15T03:47:14.354Z,97631.38
2022-09-15T03:49:41.365Z,97626.56
2022-09-15T03:52:08.558Z,97631.56
2022-09-15T03:54:35.586Z,97632.28
2022-09-15T03:57:03.435Z,97630.59
2022-09-15T03:59:30.297Z,97619.03
2022-09-15T04:01:57.378Z,97617.28
2022-09-15T04:04:24.421Z,97612.63
2022-09-15T04:06:51.261Z,97619.09
2022-09-15T04:09:20.331Z,97619.19
2022-09-15T04:11:47.949Z,97610.97
2022-09-15T04:14:14.971Z,97616.59
2022-09-15T04:16:42.048Z,97630.53
2022-09-15T04:19:09.001Z,97621.97
2022-09-15T04:21:36.042Z,97626.00
2022-09-15T04:24:04.906Z,97619.78
2022-09-15T04:26:36.079Z,97627.66
2022-09-15T04:29:04.801Z,97626.16
2022-09-15T04:31:32.534Z,97626.34
2022-09-15T04:33:59.979Z,97633.59
2022-09-15T04:36:28.478Z,97626.69
2022-09-15T04:38:56.229Z,97582.91
2022-09-15T04:41:23.310Z,97618.63
2022-09-15T04:43:50.467Z,97613.31
2022-09-15T04:46:18.490Z,97627.47
2022-09-15T04:48:49.045Z,97630.81
2022-09-15T04:51:18.219Z,97626.56
2022-09-15T04:53:45.622Z,97632.59
2022-09-15T04:56:14.743Z,97637.91
2022-09-15T04:58:48.384Z,97623.00
2022-09-15T05:01:17.240Z,97639.84
2022-09-15T05:03:44.320Z,97602.63
2022-09-15T05:06:12.622Z,97618.25
2022-09-15T05:08:39.662Z,97609.25
2022-09-15T05:11:08.768Z,97616.78
2022-09-15T05:13:36.025Z,97613.72
2022-09-15T05:16:13.778Z,97617.41
2022-09-15T05:18:41.577Z,97605.94
2022-09-15T05:21:09.155Z,97603.50
2022-09-15T05:23:36.710Z,97613.78
2022-09-15T05:26:05.874Z,97604.28
2022-09-15T05:28:33.952Z,97607.25
2022-09-15T05:31:00.992Z,97615.16
2022-09-15T05:33:28.297Z,97608.91
2022-09-15T05:35:59.431Z,97601.16
2022-09-15T05:38:28.498Z,97610.19
2022-09-15T05:40:55.980Z,97619.31
2022-09-15T05:43:23.243Z,97622.50
2022-09-15T05:45:56.438Z,97621.78
2022-09-15T05:48:24.701Z,97626.56
2022-09-15T05:50:52.537Z,97627.41
2022-09-15T05:53:19.741Z,97631.34
2022-09-15T05:55:46.823Z,97615.09
2022-09-15T05:58:13.964Z,97632.06
2022-09-15T06:00:41.744Z,97645.94
2022-09-15T06:03:13.337Z,97689.69
2022-09-15T06:05:40.357Z,97707.41
2022-09-15T06:08:07.466Z,97675.31
2022-09-15T06:10:34.858Z,97687.50
2022-09-15T06:13:01.956Z,97696.19
2022-09-15T06:15:29.037Z,97711.09
2022-09-15T06:17:56.021Z,97718.63
2022-09-15T06:20:22.935Z,97722.59
2022-09-15T06:22:49.988Z,97736.78
2022-09-15T06:25:17.141Z,97740.72
2022-09-15T06:27:44.079Z,97749.38
2022-09-15T06:30:11.593Z,97745.06
2022-09-15T06:32:38.536Z,97756.88
2022-09-15T06:35:08.734Z,97757.28
2022-09-15T06:37:35.827Z,97769.88
2022-09-15T06:40:04.328Z,97768.31
2022-09-15T06:42:31.363Z,97780.94
2022-09-15T06:44:58.848Z,97784.88
2022-09-15T06:47:25.773Z,97792.38
2022-09-15T06:49:54.796Z,97803.03
2022-09-15T06:52:22.248Z,97808.94
2022-09-15T06:54:49.838Z,97816.44
2022-09-15T06:57:16.742Z,97824.31
2022-09-15T06:59:44.663Z,97819.19
2022-09-15T07:02:12.001Z,97824.28
2022-09-15T07:04:39.032Z,97823.13
2022-09-15T07:07:05.927Z,97834.16
2022-09-15T07:09:32.809Z,97843.56
2022-09-15T07:11:59.739Z,97849.09
2022-09-15T07:14:26.657Z,97856.94
2022-09-15T07:16:53.552Z,97858.91
2022-09-15T07:19:20.464Z,97862.84
2022-09-15T07:21:47.379Z,97856.56
2022-09-15T07:24:14.621Z,97864.03
2022-09-15T07:26:41.929Z,97871.88
2022-09-15T07:29:09.803Z,97859.72
2022-09-15T07:31:37.820Z,97886.44
2022-09-15T07:34:04.970Z,97862.44
2022-09-15T07:36:32.061Z,97886.44
2022-09-15T07:38:59.222Z,97884.84
2022-09-15T07:41:27.790Z,97884.06
2022-09-15T07:43:56.115Z,97885.63
2022-09-15T07:46:23.650Z,97904.09
2022-09-15T07:48:53.136Z,97911.97
2022-09-15T07:51:20.121Z,97906.06
2022-09-15T07:53:47.702Z,97883.59
2022-09-15T07:56:14.943Z,97917.06
2022-09-15T07:58:41.932Z,97931.19
2022-09-15T08:01:11.566Z,97891.03
2022-09-15T08:03:46.449Z,97924.91
2022-09-15T08:06:13.523Z,97920.59
2022-09-15T08:08:40.554Z,97930.41
2022-09-15T08:11:17.686Z,97939.03
2022-09-15T08:13:49.715Z,97909.09
2022-09-15T08:16:18.410Z,97946.53
2022-09-15T08:18:45.568Z,97945.28
2022-09-15T08:21:15.016Z,97951.19
2022-09-15T08:23:41.972Z,97946.47
2022-09-15T08:26:13.812Z,97913.75
2022-09-15T08:28:41.473Z,97958.22
2022-09-15T08:31:09.421Z,97926.38
2022-09-15T08:33:36.630Z,97942.09
2022-09-15T08:36:05.715Z,97957.81
2022-09-15T08:38:33.077Z,97929.47
2022-09-15T08:41:04.980Z,97955.47
2022-09-15T08:43:41.209Z,97960.16
2022-09-15T08:46:10.359Z,97948.38
2022-09-15T08:48:41.348Z,97953.94
2022-09-15T08:51:12.170Z,97950.03
2022-09-15T08:53:45.480Z,97958.31
2022-09-15T08:56:17.266Z,97956.41
2022-09-15T08:58:45.759Z,97935.53
2022-09-15T09:01:27.967Z,97960.78
2022-09-15T09:03:54.881Z,97969.81
2022-09-15T09:06:24.417Z,97969.84
2022-09-15T09:08:57.208Z,97960.03
2022-09-15T09:12:01.607Z,97956.88
2022-09-15T09:14:31.792Z,97959.22
2022-09-15T09:16:58.593Z,97960.00
2022-09-15T09:20:04.273Z,97954.06
2022-09-15T09:22:33.518Z,97943.78
2022-09-15T09:25:08.454Z,97928.44
2022-09-15T09:27:43.507Z,97952.81
2022-09-15T09:30:13.353Z,97949.25
2022-09-15T09:32:54.472Z,97940.16
2022-09-15T09:35:43.739Z,97947.19
2022-09-15T09:38:11.611Z,97921.66
2022-09-15T09:40:41.173Z,97936.09
2022-09-15T09:43:08.377Z,97896.03
2022-09-15T09:45:35.385Z,97929.41
2022-09-15T09:48:03.364Z,97927.00
2022-09-15T09:50:43.195Z,97927.34
2022-09-15T09:53:31.158Z,97921.81
2022-09-15T09:56:15.217Z,97929.59
2022-09-15T09:58:42.175Z,97924.88
2022-09-15T10:01:14.280Z,97924.19
2022-09-15T10:03:45.357Z,97924.19
2022-09-15T10:06:24.523Z,97918.69
2022-09-15T10:08:57.676Z,97920.66
2022-09-15T10:11:59.072Z,97915.94
2022-09-15T10:14:35.588Z,97921.44
2022-09-15T10:17:08.325Z,97918.28
2022-09-15T10:19:43.513Z,97908.06
2022-09-15T10:22:10.510Z,97908.16
2022-09-15T10:24:39.695Z,97918.00
2022-09-15T10:27:18.014Z,97911.28
2022-09-15T10:29:45.054Z,97893.56
2022-09-15T10:32:25.525Z,97896.75
2022-09-15T10:35:22.037Z,97904.31
2022-09-15T10:37:55.105Z,97899.22
2022-09-15T10:40:40.645Z,97890.94
2022-09-15T10:43:19.469Z,97883.91
2022-09-15T10:45:49.866Z,97892.22
2022-09-15T10:48:29.146Z,97891.44
2022-09-15T10:51:16.606Z,97887.50
2022-09-15T10:54:18.317Z,97887.16
2022-09-15T10:56:48.162Z,97887.56
2022-09-15T10:59:33.883Z,97878.94
2022-09-15T11:02:29.716Z,97871.84
2022-09-15T11:05:10.971Z,97863.56
2022-09-15T11:07:59.728Z,97870.25
2022-09-15T11:10:32.528Z,97862.81
2022-09-15T11:13:08.505Z,97858.84
2022-09-15T11:15:51.408Z,97863.97
2022-09-15T11:18:27.445Z,97852.59
2022-09-15T11:21:00.253Z,97856.13
2022-09-15T11:23:29.916Z,97844.69
2022-09-15T11:26:00.546Z,97834.09
2022-09-15T11:28:57.798Z,97836.00
2022-09-15T11:31:37.394Z,97812.81
2022-09-15T11:34:20.463Z,97836.78
2022-09-15T11:36:50.987Z,97833.22
2022-09-15T11:39:24.604Z,97813.63
2022-09-15T11:42:04.803Z,97831.63
2022-09-15T11:44:33.289Z,97823.38
2022-09-15T11:47:28.703Z,97813.56
2022-09-15T11:50:18.210Z,97815.94
2022-09-15T11:52:58.625Z,97816.72
2022-09-15T11:55:37.526Z,97802.19
2022-09-15T11:58:22.135Z,97811.22
2022-09-15T12:01:08.976Z,97812.41
2022-09-15T12:03:54.761Z,97801.78
2022-09-15T12:07:01.766Z,97802.97
2022-09-15T12:09:29.338Z,97802.22
2022-09-15T12:12:01.946Z,97808.50
2022-09-15T12:14:42.313Z,97797.88
2022-09-15T12:17:15.540Z,97785.34
2022-09-15T12:19:44.682Z,97807.75
2022-09-15T12:23:03.907Z,97821.50
2022-09-15T12:26:05.812Z,97812.50
2022-09-15T12:28:42.717Z,97810.47
2022-09-15T12:31:28.212Z,97809.25
2022-09-15T12:33:56.150Z,97811.63
2022-09-15T12:36:45.743Z,97809.25
2022-09-15T12:39:24.457Z,97803.78
2022-09-15T12:42:01.382Z,97798.28
2022-09-15T12:44:45.569Z,97788.03
2022-09-15T12:47:20.556Z,97785.66
2022-09-15T12:49:48.269Z,97777.34
2022-09-15T12:52:15.288Z,97778.13
2022-09-15T12:54:43.165Z,97777.00
2022-09-15T12:57:31.401Z,97793.13
2022-09-15T13:00:20.128Z,97791.19
2022-09-15T13:02:48.122Z,97791.19
2022-09-15T13:05:35.137Z,97805.38
2022-09-15T13:08:02.116Z,97813.25
2022-09-15T13:10:33.876Z,97812.81
2022-09-15T13:13:23.393Z,97806.13
2022-09-15T13:15:51.314Z,97799.06
2022-09-15T13:18:18.329Z,97789.28
2022-09-15T13:20:59.396Z,97793.56
2022-09-15T13:23:27.427Z,97793.59
2022-09-15T13:25:57.222Z,97792.44
2022-09-15T13:28:24.428Z,97793.25
2022-09-15T13:31:20.920Z,97788.09
2022-09-15T13:41:13.231Z,97780.59
2022-09-15T13:44:18.195Z,97779.78
2022-09-15T13:46:57.302Z,97780.56
2022-09-15T13:49:40.143Z,97785.69
2022-09-15T13:52:13.422Z,97781.31
2022-09-15T13:55:17.372Z,97783.28
2022-09-15T14:00:55.545Z,97804.94
2022-09-15T14:03:25.989Z,97791.19
2022-09-15T14:05:54.005Z,97785.66
2022-09-15T14:08:22.175Z,97781.31
2022-09-15T14:10:55.261Z,97776.25
2022-09-15T14:13:22.836Z,97769.91
2022-09-15T14:16:11.785Z,97751.88
2022-09-15T14:18:44.071Z,97764.75
2022-09-15T14:21:18.022Z,97758.13
2022-09-15T14:23:49.204Z,97736.03
2022-09-15T14:26:16.834Z,97726.97
2022-09-15T14:28:52.027Z,97697.13
2022-09-15T14:31:27.664Z,97710.09
2022-09-15T14:33:54.768Z,97715.56
2022-09-15T14:36:23.125Z,97713.25
2022-09-15T14:39:11.732Z,97722.25
2022-09-15T14:41:39.213Z,97728.56
2022-09-15T14:47:20.992Z,97738.09
2022-09-15T14:49:48.144Z,97740.50
2022-09-15T14:52:24.414Z,97714.50
2022-09-15T14:54:52.193Z,97740.03
2022-09-15T14:57:20.154Z,97736.09
2022-09-15T14:59:50.547Z,97740.41
2022-09-15T15:02:47.215Z,97724.38
2022-09-15T15:05:19.863Z,97735.34
2022-09-15T15:07:46.969Z,97734.19
2022-09-15T15:10:16.825Z,97745.22
2022-09-15T15:12:44.886Z,97744.78
2022-09-15T15:15:12.529Z,97755.84
2022-09-15T15:17:44.548Z,97775.06
2022-09-15T15:20:11.501Z,97782.56
2022-09-15T15:22:38.739Z,97791.25
2022-09-15T15:25:24.606Z,97792.03
2022-09-15T15:27:58.503Z,97797.53
2022-09-15T15:30:29.768Z,97817.22
2022-09-15T15:32:57.543Z,97820.75
2022-09-15T15:35:24.563Z,97789.31
2022-09-15T15:38:25.468Z,97823.53
2022-09-15T15:41:00.163Z,97839.25
2022-09-15T15:43:27.566Z,97851.44
2022-09-15T15:46:01.056Z,97851.81
2022-09-15T15:48:32.827Z,97854.19
2022-09-15T15:51:04.391Z,97843.19
2022-09-15T15:53:31.381Z,97834.91
2022-09-15T15:55:59.571Z,97827.84
2022-09-15T15:58:26.647Z,97840.81
2022-09-15T16:00:54.840Z,97819.59
2022-09-15T16:03:21.882Z,97853.00
2022-09-15T16:05:52.871Z,97830.59
2022-09-15T16:08:27.640Z,97861.69
2022-09-15T16:10:54.619Z,97862.84
2022-09-15T16:13:22.312Z,97864.41
2022-09-15T16:15:49.414Z,97867.97
2022-09-15T16:18:16.389Z,97867.19
2022-09-15T16:20:43.463Z,97859.69
2022-09-15T16:23:15.079Z,97870.31
2022-09-15T16:26:07.312Z,97873.84
2022-09-15T16:28:34.220Z,97880.53
2022-09-15T16:31:01.103Z,97881.69
2022-09-15T16:33:28.022Z,97893.09
2022-09-15T16:35:55.832Z,97886.41
2022-09-15T16:38:25.431Z,97880.09
2022-09-15T16:40:52.345Z,97882.06
2022-09-15T16:43:21.614Z,97854.94
2022-09-15T16:45:49.364Z,97877.34
2022-09-15T16:48:16.351Z,97884.81
2022-09-15T16:51:01.226Z,97893.50
2022-09-15T16:53:31.090Z,97893.47
2022-09-15T16:55:58.078Z,97889.13
2022-09-15T16:58:24.938Z,97889.53
2022-09-15T17:00:52.881Z,97898.59
2022-09-15T17:03:24.090Z,97899.78
2022-09-15T17:05:52.177Z,97899.69
2022-09-15T17:08:20.180Z,97906.41
2022-09-15T17:10:47.501Z,97904.81
2022-09-15T17:13:16.390Z,97910.72
2022-09-15T17:15:43.790Z,97906.03
2022-09-15T17:18:13.440Z,97910.31
2022-09-15T17:20:40.330Z,97911.88
2022-09-15T17:23:27.690Z,97907.94
2022-09-15T17:25:57.443Z,97906.34
2022-09-15T17:28:29.165Z,97901.63
2022-09-15T17:31:00.669Z,97890.22
2022-09-15T17:33:28.392Z,97892.53
2022-09-15T17:35:55.383Z,97899.66
2022-09-15T17:38:22.528Z,97909.06
2022-09-15T17:40:49.948Z,97905.16
2022-09-15T17:43:18.841Z,97899.66
2022-09-15T17:45:45.985Z,97905.94
2022-09-15T17:48:12.967Z,97876.78
2022-09-15T17:50:39.957Z,97927.09
2022-09-15T17:53:17.500Z,97927.09
2022-09-15T17:55:44.418Z,97927.09
2022-09-15T17:58:11.241Z,97928.28
2022-09-15T18:00:40.176Z,97923.56
2022-09-15T18:03:28.056Z,97902.63
2022-09-15T18:05:59.256Z,97922.34
2022-09-15T18:08:26.750Z,97918.34
2022-09-15T18:10:53.803Z,97929.81
2022-09-15T18:13:22.461Z,97919.63
2022-09-15T18:15:49.464Z,97928.97
2022-09-15T18:18:21.143Z,97932.56
2022-09-15T18:20:53.171Z,97947.47
2022-09-15T18:23:21.543Z,97949.06
2022-09-15T18:25:48.574Z,97930.09
2022-09-15T18:28:15.630Z,97945.44
2022-09-15T18:30:44.353Z,97956.84
2022-09-15T18:33:14.666Z,97958.03
2022-09-15T18:35:41.921Z,97959.22
2022-09-15T18:38:08.951Z,97964.69
2022-09-15T18:40:36.027Z,97965.47
2022-09-15T18:43:02.950Z,97957.59
2022-09-15T18:45:29.830Z,97960.34
2022-09-15T18:47:57.089Z,97950.94
2022-09-15T18:50:25.635Z,97942.59
2022-09-15T18:52:53.067Z,97960.59
2022-09-15T18:55:21.119Z,97964.47
2022-09-15T18:57:48.549Z,97961.06
2022-09-15T19:00:20.321Z,97950.09
2022-09-15T19:02:47.717Z,97955.94
2022-09-15T19:05:17.850Z,97962.63
2022-09-15T19:07:44.946Z,97976.78
2022-09-15T19:10:13.176Z,97968.47
2022-09-15T19:12:40.127Z,97959.09
2022-09-15T19:15:10.912Z,97955.94
2022-09-15T19:17:38.561Z,97953.97
2022-09-15T19:20:06.848Z,97946.91
2022-09-15T19:22:33.960Z,97950.84
2022-09-15T19:25:00.826Z,97954.72
2022-09-15T19:27:27.800Z,97951.53
2022-09-15T19:29:54.640Z,97958.19
2022-09-15T19:32:22.186Z,97951.91
2022-09-15T19:34:49.106Z,97937.66
2022-09-15T19:37:20.753Z,97925.88
2022-09-15T19:39:48.127Z,97947.53
2022-09-15T19:44:47.946Z,97943.19
2022-09-15T19:47:15.005Z,97932.97
2022-09-15T19:49:41.901Z,97929.41
2022-09-15T19:52:08.822Z,97928.19
2022-09-15T19:54:35.729Z,97946.66
2022-09-15T19:57:02.707Z,97948.66
2022-09-15T19:59:31.714Z,97967.50
2022-09-15T20:01:59.746Z,97951.25
2022-09-15T20:07:12.690Z,97958.06
2022-09-15T20:09:40.893Z,97948.63
2022-09-15T20:12:07.784Z,97956.88
2022-09-15T20:14:34.721Z,97953.34
2022-09-15T20:17:01.882Z,97958.84
2022-09-15T20:19:29.898Z,97941.06
2022-09-15T20:21:56.841Z,97957.22
2022-09-15T20:24:24.074Z,97970.16
2022-09-15T20:26:51.187Z,97975.66
2022-09-15T20:29:18.527Z,97984.66
2022-09-15T20:34:29.446Z,97988.13
2022-09-15T20:36:56.363Z,97988.50
2022-09-15T20:39:23.219Z,97992.09
2022-09-15T20:41:50.132Z,97981.88
2022-09-15T20:44:17.041Z,97984.88
2022-09-15T20:46:43.888Z,97984.44
2022-09-15T20:49:10.869Z,97986.81
2022-09-15T20:51:37.667Z,97995.50
2022-09-15T20:54:04.982Z,98001.75
2022-09-15T20:56:35.001Z,98004.50
2022-09-15T20:59:03.299Z,98011.59
2022-09-15T21:01:37.226Z,98008.88
2022-09-15T21:04:04.890Z,98013.16
2022-09-15T21:06:31.717Z,98010.31
2022-09-15T21:08:58.661Z,98019.69
2022-09-15T21:11:26.625Z,98027.06
2022-09-15T21:13:53.869Z,98025.91
2022-09-15T21:16:22.205Z,98032.97
2022-09-15T21:18:49.414Z,98032.19
2022-09-15T21:21:30.258Z,97993.47
2022-09-15T21:24:03.667Z,98032.56
2022-09-15T21:26:56.637Z,98037.59
2022-09-15T21:29:23.576Z,98039.97
2022-09-15T21:31:50.487Z,98039.53
2022-09-15T21:34:17.427Z,98040.72
2022-09-15T21:36:44.252Z,98033.53
2022-09-15T21:39:11.101Z,98042.53
2022-09-15T21:41:38.335Z,98035.84
2022-09-15T21:44:05.197Z,98044.03
2022-09-15T21:46:32.052Z,98043.66
2022-09-15T21:48:59.551Z,98054.19
2022-09-15T21:51:27.278Z,98054.56
2022-09-15T21:53:54.556Z,98051.00
2022-09-15T21:56:21.790Z,98054.91
2022-09-15T21:58:48.604Z,98054.50
2022-09-15T22:01:20.129Z,98043.84
2022-09-15T22:03:54.438Z,98061.53
2022-09-15T22:06:22.529Z,98063.88
2022-09-15T22:08:49.409Z,98067.78
2022-09-15T22:11:16.258Z,98062.69
2022-09-15T22:13:43.717Z,98061.88
2022-09-15T22:16:13.212Z,98059.03
2022-09-15T22:18:40.448Z,98070.00
2022-09-15T22:21:08.487Z,98074.28
2022-09-15T22:23:35.518Z,98058.84
2022-09-15T22:26:06.829Z,98071.88
2022-09-15T22:28:33.632Z,98076.47
2022-09-15T22:31:01.063Z,98073.72
2022-09-15T22:33:28.037Z,98069.81
2022-09-15T22:35:54.948Z,98074.50
2022-09-15T22:38:21.792Z,98054.03
2022-09-15T22:40:48.631Z,98063.00
2022-09-15T22:43:15.499Z,98048.31
2022-09-15T22:45:42.336Z,98071.53
2022-09-15T22:48:09.275Z,98066.78
2022-09-15T22:50:36.162Z,98073.06
2022-09-15T22:53:02.975Z,98067.16
2022-09-15T22:55:32.667Z,98073.78
2022-09-15T22:57:59.556Z,98076.53
2022-09-15T23:00:27.142Z,98076.50
2022-09-15T23:02:54.290Z,98078.44
2022-09-15T23:05:21.266Z,98078.00
2022-09-15T23:07:48.070Z,98086.22
2022-09-15T23:10:15.134Z,98090.50
2022-09-15T23:12:42.011Z,98095.19
2022-09-15T23:15:09.164Z,98092.44
2022-09-15T23:17:36.043Z,98097.84
2022-09-15T23:20:03.182Z,98082.34
2022-09-15T23:22:30.019Z,98091.16
2022-09-15T23:24:57.611Z,98092.63
2022-09-15T23:27:24.491Z,98082.03
2022-09-15T23:29:51.315Z,98089.84
2022-09-15T23:32:18.193Z,98092.16
2022-09-15T23:34:45.032Z,98090.56
2022-09-15T23:37:11.892Z,98095.97
2022-09-15T23:39:38.758Z,98095.56
2022-09-15T23:42:05.668Z,98091.19
2022-09-15T23:44:32.496Z,98095.09
2022-09-15T23:46:59.611Z,98085.66
2022-09-15T23:49:26.467Z,98092.28
2022-09-15T23:51:53.287Z,98070.09
2022-09-15T23:54:20.153Z,98094.59
2022-09-15T23:56:47.007Z,98103.16
2022-09-15T23:59:13.913Z,98109.22
